createdAt,value
2017-09-12T00:00:33.104Z,56.30
2017-09-12T00:03:01.439Z,56.20
2017-09-12T00:05:29.042Z,56.20
2017-09-12T00:07:57.766Z,56.10
2017-09-12T00:10:25.284Z,56.10
2017-09-12T00:12:53.595Z,56.00
2017-09-12T00:15:21.171Z,56.10
2017-09-12T00:17:48.708Z,56.00
2017-09-12T00:20:16.268Z,55.90
2017-09-12T00:22:43.832Z,55.90
2017-09-12T00:25:11.386Z,55.90
2017-09-12T00:27:38.948Z,55.90
2017-09-12T00:30:06.489Z,55.80
2017-09-12T00:32:35.226Z,55.80
2017-09-12T00:35:02.748Z,55.90
2017-09-12T00:37:30.283Z,55.80
2017-09-12T00:39:57.868Z,55.80
2017-09-12T00:42:25.409Z,55.80
2017-09-12T00:44:54.036Z,55.80
2017-09-12T00:47:21.550Z,55.80
2017-09-12T00:49:49.074Z,55.80
2017-09-12T00:52:16.636Z,55.80
2017-09-12T00:54:44.146Z,55.80
2017-09-12T00:57:12.872Z,55.80
2017-09-12T00:59:40.405Z,55.70
2017-09-12T01:02:07.926Z,55.70
2017-09-12T01:04:36.274Z,55.80
2017-09-12T01:07:03.797Z,55.70
2017-09-12T01:09:32.382Z,55.70
2017-09-12T01:12:00.813Z,55.80
2017-09-12T01:14:28.331Z,55.80
2017-09-12T01:16:55.887Z,55.80
2017-09-12T01:19:23.420Z,55.80
2017-09-12T01:21:51.339Z,55.90
2017-09-12T01:24:18.888Z,55.90
2017-09-12T01:26:46.449Z,55.90
2017-09-12T01:29:14.011Z,55.90
2017-09-12T01:31:41.543Z,56.00
2017-09-12T01:34:10.176Z,56.00
2017-09-12T01:36:37.796Z,56.00
2017-09-12T01:39:06.083Z,55.90
2017-09-12T01:41:33.630Z,56.00
2017-09-12T01:46:48.830Z,56.10
2017-09-12T01:49:17.102Z,56.50
2017-09-12T01:51:44.634Z,56.40
2017-09-12T01:54:12.175Z,56.50
2017-09-12T01:59:30.373Z,56.70
2017-09-12T02:01:58.673Z,56.80
2017-09-12T02:04:26.187Z,56.90
2017-09-12T02:06:53.991Z,57.00
2017-09-12T02:09:22.276Z,57.20
2017-09-12T02:11:50.566Z,57.20
2017-09-12T02:14:18.446Z,57.20
2017-09-12T02:16:45.957Z,57.30
2017-09-12T02:19:13.475Z,57.40
2017-09-12T02:21:41.340Z,57.40
2017-09-12T02:24:08.866Z,57.40
2017-09-12T02:26:43.519Z,57.40
2017-09-12T02:29:11.037Z,57.40
2017-09-12T02:31:39.364Z,57.40
2017-09-12T02:34:07.215Z,57.40
2017-09-12T02:36:34.759Z,57.50
2017-09-12T02:39:02.263Z,57.50
2017-09-12T02:41:30.141Z,57.50
2017-09-12T02:43:57.669Z,57.60
2017-09-12T02:46:25.195Z,57.50
2017-09-12T02:48:53.807Z,57.70
2017-09-12T02:51:21.335Z,57.70
2017-09-12T02:53:49.655Z,58.00
2017-09-12T02:56:17.508Z,58.00
2017-09-12T02:58:45.029Z,58.10
2017-09-12T03:01:12.527Z,58.20
2017-09-12T03:03:40.424Z,58.30
2017-09-12T03:06:07.944Z,58.30
2017-09-12T03:08:35.488Z,58.30
2017-09-12T03:11:06.463Z,58.30
2017-09-12T03:13:34.009Z,58.20
2017-09-12T03:16:01.526Z,58.10
2017-09-12T03:18:29.357Z,58.00
2017-09-12T03:20:56.903Z,57.80
2017-09-12T03:23:24.424Z,57.80
2017-09-12T03:25:52.347Z,57.60
2017-09-12T03:28:20.639Z,57.40
2017-09-12T03:30:48.160Z,57.50
2017-09-12T03:33:16.048Z,57.40
2017-09-12T03:35:43.572Z,57.30
2017-09-12T03:38:11.862Z,57.10
2017-09-12T03:40:40.482Z,57.10
2017-09-12T03:43:08.088Z,57.30
2017-09-12T03:45:35.597Z,57.20
2017-09-12T03:48:03.565Z,57.10
2017-09-12T03:50:31.098Z,57.00
2017-09-12T03:52:58.629Z,57.10
2017-09-12T03:55:26.451Z,57.00
2017-09-12T03:57:54.261Z,57.10
2017-09-12T04:00:21.778Z,57.10
2017-09-12T04:02:52.295Z,56.90
2017-09-12T04:05:19.851Z,57.00
2017-09-12T04:07:47.375Z,57.00
2017-09-12T04:10:15.319Z,57.00
2017-09-12T04:12:42.857Z,57.10
2017-09-12T04:15:10.439Z,57.20
2017-09-12T04:17:38.313Z,57.20
2017-09-12T04:20:05.857Z,57.30
2017-09-12T04:22:33.388Z,57.30
2017-09-12T04:25:01.208Z,57.50
2017-09-12T04:27:28.751Z,58.10
2017-09-12T04:29:56.290Z,58.20
2017-09-12T04:32:24.228Z,57.60
2017-09-12T04:34:51.765Z,57.80
2017-09-12T04:37:19.317Z,57.80
2017-09-12T04:39:47.152Z,57.80
2017-09-12T04:42:14.680Z,57.90
2017-09-12T04:44:42.960Z,57.90
2017-09-12T04:47:10.853Z,57.90
2017-09-12T04:49:38.370Z,58.00
2017-09-12T04:52:06.651Z,58.40
2017-09-12T04:54:35.286Z,58.00
2017-09-12T04:57:03.457Z,58.00
2017-09-12T04:59:31.015Z,58.00
2017-09-12T05:01:58.880Z,58.20
2017-09-12T05:04:26.418Z,58.20
2017-09-12T05:06:53.951Z,58.20
2017-09-12T05:09:22.612Z,58.30
2017-09-12T05:11:50.153Z,58.30
2017-09-12T05:14:17.672Z,58.40
2017-09-12T05:16:46.264Z,58.40
2017-09-12T05:19:14.542Z,58.50
2017-09-12T05:21:42.091Z,58.50
2017-09-12T05:24:10.007Z,58.60
2017-09-12T05:26:37.558Z,58.60
2017-09-12T05:29:05.077Z,58.70
2017-09-12T05:31:33.706Z,58.70
2017-09-12T05:34:01.244Z,58.70
2017-09-12T05:36:28.768Z,58.80
2017-09-12T05:38:56.578Z,59.00
2017-09-12T05:41:24.117Z,58.90
2017-09-12T05:43:51.643Z,58.90
2017-09-12T05:46:19.485Z,59.00
2017-09-12T05:48:47.044Z,58.80
2017-09-12T05:51:14.664Z,58.80
2017-09-12T05:53:42.567Z,58.70
2017-09-12T05:56:10.111Z,58.60
2017-09-12T05:58:37.646Z,58.50
2017-09-12T06:01:06.276Z,58.30
2017-09-12T06:03:33.809Z,58.30
2017-09-12T06:06:01.343Z,58.10
2017-09-12T06:08:29.256Z,57.90
2017-09-12T06:10:56.803Z,57.80
2017-09-12T06:13:24.344Z,58.40
2017-09-12T06:15:52.986Z,57.60
2017-09-12T06:18:20.521Z,57.60
2017-09-12T06:20:48.048Z,57.50
2017-09-12T06:23:15.883Z,57.40
2017-09-12T06:25:43.409Z,57.30
2017-09-12T06:28:10.986Z,57.20
2017-09-12T06:30:38.844Z,57.30
2017-09-12T06:33:06.356Z,57.10
2017-09-12T06:35:33.865Z,57.00
2017-09-12T06:38:01.764Z,56.90
2017-09-12T06:40:29.336Z,56.90
2017-09-12T06:42:57.643Z,56.80
2017-09-12T06:45:25.480Z,57.10
2017-09-12T06:47:53.767Z,56.60
2017-09-12T06:50:21.457Z,56.60
2017-09-12T06:52:49.291Z,56.20
2017-09-12T06:55:17.588Z,56.00
2017-09-12T06:57:45.873Z,56.00
2017-09-12T07:00:14.517Z,55.70
2017-09-12T07:02:42.055Z,55.70
2017-09-12T07:05:09.582Z,55.50
2017-09-12T07:07:37.477Z,55.30
2017-09-12T07:10:05.066Z,54.90
2017-09-12T07:12:33.400Z,54.30
2017-09-12T07:15:01.281Z,54.30
2017-09-12T07:17:28.830Z,54.10
2017-09-12T07:19:56.465Z,54.10
2017-09-12T07:22:24.455Z,54.00
2017-09-12T07:24:51.981Z,54.00
2017-09-12T07:27:20.284Z,53.90
2017-09-12T07:29:48.192Z,53.90
2017-09-12T07:32:15.744Z,53.90
2017-09-12T07:34:43.306Z,53.50
2017-09-12T07:37:11.170Z,53.40
2017-09-12T07:39:38.724Z,53.40
2017-09-12T07:42:06.304Z,53.00
2017-09-12T07:44:34.134Z,52.90
2017-09-12T07:47:01.658Z,52.50
2017-09-12T07:49:29.214Z,52.40
2017-09-12T07:51:57.119Z,52.60
2017-09-12T07:54:25.411Z,52.40
2017-09-12T07:56:52.956Z,52.30
2017-09-12T07:59:21.532Z,52.40
2017-09-12T08:01:49.156Z,52.30
2017-09-12T08:04:16.703Z,52.40
2017-09-12T08:06:44.624Z,52.30
2017-09-12T08:09:12.956Z,52.30
2017-09-12T08:11:40.482Z,52.40
2017-09-12T08:14:08.350Z,52.20
2017-09-12T08:16:35.874Z,52.00
2017-09-12T08:19:03.417Z,51.90
2017-09-12T08:21:31.245Z,52.10
2017-09-12T08:23:58.832Z,51.90
2017-09-12T08:26:26.360Z,51.70
2017-09-12T08:28:54.256Z,51.80
2017-09-12T08:31:21.787Z,51.60
2017-09-12T08:33:49.322Z,51.60
2017-09-12T08:36:17.983Z,51.80
2017-09-12T08:38:45.497Z,51.80
2017-09-12T08:41:13.043Z,51.80
2017-09-12T08:43:40.887Z,51.70
2017-09-12T08:46:09.223Z,51.70
2017-09-12T08:48:36.790Z,51.70
2017-09-12T08:51:04.650Z,51.70
2017-09-12T08:53:32.206Z,51.70
2017-09-12T08:55:59.753Z,51.50
2017-09-12T08:58:27.592Z,51.50
2017-09-12T09:00:55.160Z,51.20
2017-09-12T09:03:22.682Z,51.30
2017-09-12T09:05:50.699Z,51.40
2017-09-12T09:08:18.274Z,51.50
2017-09-12T09:10:47.827Z,51.30
2017-09-12T09:13:15.764Z,51.00
2017-09-12T09:15:43.287Z,51.10
2017-09-12T09:18:11.651Z,51.10
2017-09-12T09:20:40.400Z,51.00
2017-09-12T09:23:07.956Z,51.00
2017-09-12T09:25:35.484Z,51.00
2017-09-12T09:28:04.123Z,50.40
2017-09-12T09:30:31.655Z,50.40
2017-09-12T09:32:59.290Z,50.40
2017-09-12T09:35:27.132Z,50.40
2017-09-12T09:37:54.705Z,50.30
2017-09-12T09:40:23.041Z,50.20
2017-09-12T09:42:50.931Z,50.20
2017-09-12T09:45:18.502Z,50.40
2017-09-12T09:47:46.918Z,49.90
2017-09-12T09:50:14.812Z,49.90
2017-09-12T09:52:42.350Z,50.00
2017-09-12T09:55:09.922Z,49.50
2017-09-12T09:57:37.810Z,48.90
2017-09-12T10:00:05.449Z,48.60
2017-09-12T10:02:33.148Z,48.70
2017-09-12T10:05:01.779Z,48.50
2017-09-12T10:07:29.439Z,48.50
2017-09-12T10:09:57.002Z,48.30
2017-09-12T10:12:24.839Z,48.40
2017-09-12T10:14:52.421Z,48.00
2017-09-12T10:17:20.023Z,47.90
2017-09-12T10:19:47.999Z,48.00
2017-09-12T10:22:15.515Z,47.70
2017-09-12T10:24:43.806Z,47.60
2017-09-12T10:27:11.761Z,47.60
2017-09-12T10:29:39.343Z,47.70
2017-09-12T10:32:06.863Z,47.30
2017-09-12T10:34:35.488Z,47.60
2017-09-12T10:37:03.030Z,47.40
2017-09-12T10:39:30.565Z,48.10
2017-09-12T10:41:58.505Z,47.70
2017-09-12T10:44:26.023Z,47.20
2017-09-12T10:46:53.576Z,46.90
2017-09-12T10:49:21.502Z,46.80
2017-09-12T10:51:49.098Z,46.70
2017-09-12T10:54:17.406Z,46.50
2017-09-12T10:56:45.303Z,46.50
2017-09-12T10:59:13.637Z,46.80
2017-09-12T11:01:41.167Z,46.80
2017-09-12T11:04:08.990Z,46.90
2017-09-12T11:06:36.516Z,46.90
2017-09-12T11:09:04.816Z,47.00
2017-09-12T11:11:32.642Z,47.10
2017-09-12T11:14:00.180Z,47.00
2017-09-12T11:16:27.732Z,47.00
2017-09-12T11:18:55.557Z,46.70
2017-09-12T11:21:23.079Z,46.50
2017-09-12T11:23:50.698Z,46.30
2017-09-12T11:26:18.536Z,46.60
2017-09-12T11:28:46.068Z,46.60
2017-09-12T11:31:13.606Z,46.40
2017-09-12T11:33:41.469Z,45.60
2017-09-12T11:36:09.029Z,45.50
2017-09-12T11:38:36.567Z,45.20
2017-09-12T11:41:04.372Z,44.90
2017-09-12T11:43:31.957Z,44.70
2017-09-12T11:45:59.466Z,44.90
2017-09-12T11:48:27.256Z,45.10
2017-09-12T11:50:54.786Z,45.20
2017-09-12T11:53:22.299Z,45.40
2017-09-12T11:55:50.128Z,45.50
2017-09-12T11:58:17.663Z,45.50
2017-09-12T12:00:45.196Z,45.40
2017-09-12T12:03:13.829Z,45.90
2017-09-12T12:05:41.354Z,45.90
2017-09-12T12:08:08.907Z,45.80
2017-09-12T12:10:36.723Z,45.80
2017-09-12T12:13:04.326Z,45.60
2017-09-12T12:15:31.910Z,45.20
2017-09-12T12:17:59.465Z,45.10
2017-09-12T12:20:27.473Z,45.20
2017-09-12T12:22:56.170Z,42.80
2017-09-12T12:25:23.707Z,42.80
2017-09-12T12:27:51.244Z,42.00
2017-09-12T12:30:19.228Z,41.60
2017-09-12T12:32:46.765Z,41.60
2017-09-12T12:35:15.088Z,42.50
2017-09-12T12:37:43.077Z,42.50
2017-09-12T12:40:10.625Z,43.00
2017-09-12T12:42:38.186Z,42.80
2017-09-12T12:45:06.190Z,43.10
2017-09-12T12:47:33.716Z,43.40
2017-09-12T12:50:01.245Z,43.90
2017-09-12T12:52:29.144Z,44.20
2017-09-12T12:54:56.662Z,44.20
2017-09-12T12:57:24.257Z,43.10
2017-09-12T12:59:52.091Z,42.80
2017-09-12T13:02:20.391Z,42.00
2017-09-12T13:04:47.933Z,42.10
2017-09-12T13:07:15.849Z,42.00
2017-09-12T13:09:43.457Z,42.00
2017-09-12T13:12:11.024Z,42.20
2017-09-12T13:14:38.942Z,42.00
2017-09-12T13:17:06.566Z,42.60
2017-09-12T13:19:34.987Z,42.70
2017-09-12T13:22:03.437Z,42.50
2017-09-12T13:24:30.954Z,42.60
2017-09-12T13:26:59.973Z,43.20
2017-09-12T13:29:27.989Z,43.20
2017-09-12T13:31:55.521Z,43.30
2017-09-12T13:34:23.056Z,43.40
2017-09-12T13:36:51.783Z,43.60
2017-09-12T13:39:19.357Z,43.60
2017-09-12T13:41:47.018Z,43.70
2017-09-12T13:44:14.887Z,43.70
2017-09-12T13:46:43.187Z,44.00
2017-09-12T13:49:10.785Z,44.10
2017-09-12T13:51:38.798Z,44.40
2017-09-12T13:54:06.346Z,44.70
2017-09-12T13:56:34.654Z,44.80
2017-09-12T13:59:02.521Z,44.70
2017-09-12T14:01:30.167Z,44.60
2017-09-12T14:03:58.095Z,44.60
2017-09-12T14:06:25.916Z,44.70
2017-09-12T14:08:53.498Z,45.10
2017-09-12T14:11:21.129Z,44.60
2017-09-12T14:13:49.394Z,44.20
2017-09-12T14:16:18.373Z,43.60
2017-09-12T14:18:45.956Z,42.60
2017-09-12T14:21:14.042Z,42.20
2017-09-12T14:23:41.737Z,41.90
2017-09-12T14:26:10.109Z,41.30
2017-09-12T14:28:37.950Z,41.40
2017-09-12T14:31:05.499Z,41.40
2017-09-12T14:33:33.037Z,41.70
2017-09-12T14:36:00.955Z,41.90
2017-09-12T14:38:28.493Z,42.00
2017-09-12T14:40:56.063Z,41.90
2017-09-12T14:43:23.949Z,42.30
2017-09-12T14:45:51.593Z,42.60
2017-09-12T14:48:19.158Z,42.80
2017-09-12T14:50:46.988Z,43.10
2017-09-12T14:53:14.578Z,43.30
2017-09-12T14:55:42.135Z,43.50
2017-09-12T14:58:09.982Z,45.10
2017-09-12T15:00:37.632Z,46.10
2017-09-12T15:03:05.188Z,47.10
2017-09-12T15:05:33.092Z,47.90
2017-09-12T15:08:01.542Z,48.60
2017-09-12T15:10:29.105Z,49.40
2017-09-12T15:12:56.995Z,50.80
2017-09-12T15:15:24.521Z,52.20
2017-09-12T15:17:52.129Z,53.10
2017-09-12T15:20:20.183Z,54.00
2017-09-12T15:22:47.743Z,54.90
2017-09-12T15:25:15.294Z,55.50
2017-09-12T15:27:43.192Z,56.10
2017-09-12T15:30:10.716Z,56.50
2017-09-12T15:32:38.244Z,57.20
2017-09-12T15:35:06.836Z,57.70
2017-09-12T15:37:35.164Z,57.80
2017-09-12T15:40:02.820Z,57.90
2017-09-12T15:42:30.690Z,58.00
2017-09-12T15:44:58.283Z,58.30
2017-09-12T15:47:25.909Z,58.30
2017-09-12T15:49:53.777Z,58.10
2017-09-12T15:52:21.315Z,58.10
2017-09-12T15:54:48.887Z,58.70
2017-09-12T15:57:16.759Z,59.90
2017-09-12T15:59:44.267Z,60.00
2017-09-12T16:02:12.615Z,58.40
2017-09-12T16:04:40.477Z,58.30
2017-09-12T16:07:08.032Z,57.50
2017-09-12T16:12:29.777Z,55.50
2017-09-12T16:14:57.304Z,54.50
2017-09-12T16:17:25.625Z,52.30
2017-09-12T16:19:53.517Z,52.30
2017-09-12T16:22:21.135Z,51.30
2017-09-12T16:24:48.654Z,50.70
2017-09-12T16:27:16.495Z,50.40
2017-09-12T16:29:44.045Z,50.50
2017-09-12T16:32:11.567Z,50.20
2017-09-12T16:34:40.218Z,50.70
2017-09-12T16:37:07.748Z,50.70
2017-09-12T16:39:35.309Z,51.00
2017-09-12T16:42:03.189Z,51.50
2017-09-12T16:44:30.725Z,51.90
2017-09-12T16:46:58.336Z,53.10
2017-09-12T16:49:26.361Z,53.00
2017-09-12T16:51:54.001Z,52.90
2017-09-12T16:54:21.698Z,52.40
2017-09-12T16:56:49.676Z,52.60
2017-09-12T16:59:17.274Z,52.50
2017-09-12T17:01:45.622Z,52.30
2017-09-12T17:04:13.476Z,52.40
2017-09-12T17:06:41.010Z,52.50
2017-09-12T17:09:08.656Z,52.60
2017-09-12T17:11:37.249Z,52.80
2017-09-12T17:14:04.840Z,52.80
2017-09-12T17:16:32.438Z,52.90
2017-09-12T17:19:00.397Z,53.00
2017-09-12T17:21:28.740Z,52.80
2017-09-12T17:23:57.162Z,52.90
2017-09-12T17:26:25.008Z,53.10
2017-09-12T17:28:52.585Z,53.10
2017-09-12T17:31:20.116Z,53.50
2017-09-12T17:33:47.942Z,53.70
2017-09-12T17:36:16.276Z,54.10
2017-09-12T17:38:43.902Z,54.10
2017-09-12T17:41:11.892Z,54.80
2017-09-12T17:43:39.496Z,54.70
2017-09-12T17:46:07.135Z,54.80
2017-09-12T17:48:34.982Z,54.80
2017-09-12T17:51:02.560Z,54.90
2017-09-12T17:53:30.106Z,55.20
2017-09-12T17:55:58.112Z,55.40
2017-09-12T17:58:25.691Z,55.50
2017-09-12T18:00:53.279Z,55.50
2017-09-12T18:03:21.265Z,55.70
2017-09-12T18:05:55.269Z,55.80
2017-09-12T18:08:23.205Z,56.10
2017-09-12T18:10:50.765Z,56.00
2017-09-12T18:13:19.211Z,56.30
2017-09-12T18:19:50.735Z,56.50
2017-09-12T18:22:19.456Z,56.70
2017-09-12T18:24:47.907Z,56.80
2017-09-12T18:27:28.362Z,57.30
2017-09-12T18:29:55.912Z,57.40
2017-09-12T18:32:24.275Z,57.50
2017-09-12T18:34:52.159Z,57.50
2017-09-12T18:37:19.736Z,57.60
2017-09-12T18:39:47.347Z,57.70
2017-09-12T18:42:15.192Z,57.90
2017-09-12T18:44:42.862Z,58.10
2017-09-12T18:47:11.375Z,58.20
2017-09-12T18:49:39.298Z,58.40
2017-09-12T18:52:06.852Z,58.40
2017-09-12T18:54:34.499Z,58.60
2017-09-12T18:57:02.394Z,58.60
2017-09-12T18:59:29.999Z,58.70
2017-09-12T19:01:57.575Z,58.80
2017-09-12T19:04:25.430Z,59.30
2017-09-12T19:06:53.011Z,58.90
2017-09-12T19:09:20.653Z,58.80
2017-09-12T19:11:48.969Z,58.90
2017-09-12T19:14:17.366Z,59.00
2017-09-12T19:16:45.721Z,59.10
2017-09-12T19:19:13.837Z,59.00
2017-09-12T19:21:41.545Z,59.10
2017-09-12T19:24:09.176Z,59.10
2017-09-12T19:26:37.255Z,59.00
2017-09-12T19:29:04.828Z,59.30
2017-09-12T19:31:33.435Z,59.40
2017-09-12T19:34:01.368Z,59.30
2017-09-12T19:36:28.966Z,59.50
2017-09-12T19:38:56.537Z,59.40
2017-09-12T19:41:25.289Z,59.50
2017-09-12T19:43:52.838Z,59.40
2017-09-12T19:46:20.489Z,59.40
2017-09-12T19:48:48.403Z,59.50
2017-09-12T19:51:15.977Z,59.50
2017-09-12T19:53:43.595Z,59.60
2017-09-12T19:56:11.505Z,59.50
2017-09-12T19:58:39.845Z,59.60
2017-09-12T20:01:07.425Z,59.80
2017-09-12T20:03:35.305Z,59.80
2017-09-12T20:06:03.635Z,60.70
2017-09-12T20:08:31.222Z,59.90
2017-09-12T20:10:59.811Z,60.00
2017-09-12T20:13:27.374Z,60.70
2017-09-12T20:15:55.054Z,60.10
2017-09-12T20:18:22.899Z,60.00
2017-09-12T20:20:50.447Z,60.10
2017-09-12T20:23:17.984Z,60.20
2017-09-12T20:25:45.902Z,60.30
2017-09-12T20:28:13.445Z,60.20
2017-09-12T20:30:41.815Z,60.30
2017-09-12T20:33:09.813Z,60.50
2017-09-12T20:35:37.350Z,60.40
2017-09-12T20:38:04.887Z,60.40
2017-09-12T20:40:32.817Z,60.50
2017-09-12T20:43:00.453Z,60.70
2017-09-12T20:45:28.021Z,60.90
2017-09-12T20:47:59.459Z,60.90
2017-09-12T20:50:27.032Z,60.80
2017-09-12T20:52:54.568Z,60.90
2017-09-12T20:55:22.453Z,60.90
2017-09-12T20:57:50.002Z,61.00
2017-09-12T21:00:17.562Z,61.10
2017-09-12T21:02:45.469Z,61.10
2017-09-12T21:05:13.023Z,61.10
2017-09-12T21:07:41.664Z,61.10
2017-09-12T21:10:10.408Z,61.30
2017-09-12T21:12:38.797Z,61.40
2017-09-12T21:15:07.479Z,61.60
2017-09-12T21:17:35.435Z,61.50
2017-09-12T21:20:03.756Z,61.60
2017-09-12T21:22:31.390Z,61.70
2017-09-12T21:24:59.266Z,61.80
2017-09-12T21:27:26.880Z,61.90
2017-09-12T21:29:54.463Z,62.10
2017-09-12T21:32:23.330Z,62.10
2017-09-12T21:34:51.379Z,62.20
2017-09-12T21:37:18.968Z,62.30
2017-09-12T21:39:46.819Z,62.40
2017-09-12T21:42:14.388Z,62.50
2017-09-12T21:44:41.938Z,62.60
2017-09-12T21:47:09.851Z,62.70
2017-09-12T21:49:37.365Z,62.80
2017-09-12T21:52:05.028Z,62.90
2017-09-12T21:54:32.952Z,63.00
2017-09-12T21:57:01.348Z,63.00
2017-09-12T21:59:28.931Z,63.10
2017-09-12T22:01:56.771Z,63.20
2017-09-12T22:04:24.428Z,63.30
2017-09-12T22:06:52.962Z,63.30
2017-09-12T22:09:24.239Z,63.40
2017-09-12T22:11:51.900Z,63.30
2017-09-12T22:14:20.306Z,63.50
2017-09-12T22:16:48.131Z,63.70
2017-09-12T22:19:15.689Z,63.50
2017-09-12T22:21:43.439Z,63.40
2017-09-12T22:24:11.390Z,63.60
2017-09-12T22:26:38.920Z,63.60
2017-09-12T22:29:06.496Z,63.60
2017-09-12T22:31:34.388Z,63.50
2017-09-12T22:34:01.949Z,63.50
2017-09-12T22:36:29.508Z,63.70
2017-09-12T22:38:57.286Z,63.70
2017-09-12T22:41:24.838Z,63.70
2017-09-12T22:43:52.415Z,63.80
2017-09-12T22:46:20.260Z,63.90
2017-09-12T22:48:47.799Z,63.90
2017-09-12T22:51:15.328Z,64.00
2017-09-12T22:53:43.973Z,64.80
2017-09-12T22:56:11.494Z,64.30
2017-09-12T22:58:39.050Z,64.30
2017-09-12T23:01:07.672Z,64.40
2017-09-12T23:03:35.199Z,64.30
2017-09-12T23:06:02.775Z,64.50
2017-09-12T23:08:30.799Z,64.50
2017-09-12T23:10:58.340Z,64.60
2017-09-12T23:13:25.887Z,64.70
2017-09-12T23:15:53.800Z,64.80
2017-09-12T23:18:21.359Z,64.70
2017-09-12T23:20:48.887Z,64.90
2017-09-12T23:23:16.740Z,64.90
2017-09-12T23:25:44.353Z,64.80
2017-09-12T23:28:12.742Z,64.70
2017-09-12T23:30:41.482Z,64.80
2017-09-12T23:33:09.033Z,64.90
2017-09-12T23:35:36.567Z,65.00
2017-09-12T23:38:04.435Z,65.10
2017-09-12T23:40:32.806Z,65.00
2017-09-12T23:43:01.131Z,65.00
2017-09-12T23:45:28.951Z,65.10
2017-09-12T23:47:57.241Z,65.10
2017-09-12T23:50:24.817Z,65.20
2017-09-12T23:52:52.666Z,65.20
2017-09-12T23:55:20.191Z,65.20
2017-09-12T23:57:47.722Z,65.20
